SHLP weather

Public forecast

Using degrees Celsius for public forecast. Weather courtesy of forecast.io.

Closest aviation weather report (METAR) to La Parva Heliport

Closest report is Eulogio Sánchez Airport, 15.3 nm (28.3 km) WSW. Retrieved 2020/08/13 14:00 UTC (17 minutes ago):

SCTB 131400Z 00000KT CAVOK 08/01 Q1018

Closest aviation forecast (TAF) to La Parva Heliport

Closest forecast is Comodoro Arturo Merino Benítez International Airport, 25.5 nm (47.2 km) W. Retrieved 2020/08/13 12:00 UTC (2 hours ago):

TAF SCEL 131000Z 1312/1412 VRB02KT 7000 NSC TX16/1318Z TN02/1410Z TEMPO 1312/1314 16004KT 4000 BR NSC BECMG 1316/1318 19008KT CAVOK BECMG 1402/1404 16004KT BECMG 1406/1408 6000 BKN012